Главная страница
METAR-TAF:

METAR-TAF

Аэропорты :

Внуково

Москва-Внуково, Россия

широта: 55-39N, долгота: 037-16E, высота над уровнем моря: 203 м

Текущие метеонаблюдения

Эта сводка был подготовлена 24 минут назад, в 09:30 UTC
Ветер 8 Узел от юго-западный
Температура 17°C
Влажность 55%
Давление 1022 hPa
Видимость 10 км и более
Нет облачности ниже 1500 м, и нет кучево-дождевой облачности

METAR: UUWW 180930Z 23004MPS CAVOK 17/08 Q1022 R24/000070 NOSIG

Время: 12:54 (09:54 UTC)

Прогноз

Эта сводка был подготовлена 1 час и 57 минут назад, в 07:57 UTC
Прогноз действительный с 18-го 09 UTC до 19-го 09 UTC
Ветер 6 Узел от юго-западный
Видимость 10 км и более
Отдельные облака на высоте 2000 фута
временами
С 18-го 18 UTC до 19-го 06 UTC
Видимость: 3100 м
небольшая облачность на высоте 500 фута
дымка

TAF: UUWW 180757Z 1809/1909 22003MPS 9999 SCT020 TX17/1812Z TN06/1903Z TEMPO 1818/1906 3100 BR FEW005

Метеонаблюдения и прогнозы для более 4000 аэропортов (сводки METAR и TAF).

Имеющиеся станции представлены на карте желтыми и красными точками.

Чтобы увидеть название станции, наведите на нее мышь.

Затем щелкните, чтобы увидеть метеонаблюдения и метеопрогнозы.

Управление картой: чтобы увеличить масштаб, щелкните зеленые кнопки с черным крестиком; чтобы уменьшить масштаб, щелкните зеленую кнопку с тире; для просмотра соседних карт щелкайте зеленые стрелки.


METAR-TAF: